Big Bear Station Historical Data
Daily Summary for March 27, 2019 Units:  English    Metric   Both
Next Day »
Daily Weekly Monthly Yearly Custom
  High: Low: Average:
Temperature: 54.3 °F 36.3 °F 43 °F
Dew Point: 36.5 °F 8.4 °F 20.8 °F
Humidity: 93% 27% 45%
Wind Speed: 6.3mph 0.0mph 2.2mph
Wind Gust: -999.0mph - -
Wind- - West
Pressure: 23.52 in 23.43 in -
Precipitation: 0.00 in    
Historical Graphs
 
 
Tabular Data for March 27, 2019
Time Temperature Dew Point Pressure Wind Wind Speed Wind Gust Humidity Rainfall Rate (Hourly)
00:12 37.4 °F 10.2 °F 23.47 in Calm   -999.0 mph 32% 0.00 in
00:27 38.1 °F 10.1 °F 23.46 in Calm   -999.0 mph 31% 0.00 in
00:43 37.9 °F 9.9 °F 23.46 in Calm   -999.0 mph 31% 0.00 in
00:58 37.9 °F 9.2 °F 23.46 in Calm   -999.0 mph 30% 0.00 in
01:13 37.8 °F 8.4 °F 23.46 in Calm   -999.0 mph 29% 0.00 in
01:28 37.2 °F 10.0 °F 23.46 in Calm   -999.0 mph 32% 0.00 in
01:43 36.7 °F 10.3 °F 23.46 in Calm   -999.0 mph 33% 0.00 in
01:59 37.8 °F 11.2 °F 23.46 in Calm   -999.0 mph 33% 0.00 in
02:14 38.1 °F 11.5 °F 23.46 in Calm   -999.0 mph 33% 0.00 in
02:29 37.9 °F 11.3 °F 23.46 in Calm   -999.0 mph 33% 0.00 in
02:44 37.9 °F 9.9 °F 23.45 in Calm   -999.0 mph 31% 0.00 in
02:59 38.1 °F 8.6 °F 23.45 in Calm   -999.0 mph 29% 0.00 in
03:15 38.3 °F 9.5 °F 23.45 in Calm   -999.0 mph 30% 0.00 in
03:30 38.7 °F 8.4 °F 23.45 in SE 1.7 mph -999.0 mph 28% 0.00 in
03:45 38.7 °F 9.1 °F 23.45 in Calm   -999.0 mph 29% 0.00 in
04:00 39.2 °F 11.1 °F 23.45 in NNW 2.2 mph -999.0 mph 31% 0.00 in
04:15 38.5 °F 12.5 °F 23.44 in West 1.7 mph -999.0 mph 34% 0.00 in
04:31 38.7 °F 12.0 °F 23.44 in Calm   -999.0 mph 33% 0.00 in
04:46 39.0 °F 13.0 °F 23.44 in Calm   -999.0 mph 34% 0.00 in
05:01 38.7 °F 13.4 °F 23.45 in Calm   -999.0 mph 35% 0.00 in
05:16 38.5 °F 12.5 °F 23.44 in Calm   -999.0 mph 34% 0.00 in
05:32 38.5 °F 11.2 °F 23.44 in West 2.2 mph -999.0 mph 32% 0.00 in
05:47 38.3 °F 11.0 °F 23.44 in NW 4.7 mph -999.0 mph 32% 0.00 in
06:02 38.8 °F 11.4 °F 23.43 in Calm   -999.0 mph 32% 0.00 in
06:17 39.2 °F 11.8 °F 23.44 in Calm   -999.0 mph 32% 0.00 in
06:33 39.6 °F 12.1 °F 23.44 in SSW 2.2 mph -999.0 mph 32% 0.00 in
06:48 40.1 °F 11.1 °F 23.45 in Calm   -999.0 mph 30% 0.00 in
07:03 39.4 °F 10.5 °F 23.45 in Calm   -999.0 mph 30% 0.00 in
07:18 39.0 °F 11.6 °F 23.46 in Calm   -999.0 mph 32% 0.00 in
07:33 39.6 °F 11.4 °F 23.46 in Calm   -999.0 mph 31% 0.00 in
07:49 40.8 °F 13.2 °F 23.46 in Calm   -999.0 mph 32% 0.00 in
08:04 41.5 °F 13.8 °F 23.47 in NW 1.7 mph -999.0 mph 32% 0.00 in
08:19 42.6 °F 14.0 °F 23.47 in ESE 2.2 mph -999.0 mph 31% 0.00 in
08:35 43.3 °F 16.1 °F 23.47 in WSW 1.1 mph -999.0 mph 33% 0.00 in
08:50 43.9 °F 15.2 °F 23.47 in West 2.2 mph -999.0 mph 31% 0.00 in
09:06 44.2 °F 17.6 °F 23.48 in SSW 4.7 mph -999.0 mph 34% 0.00 in
09:21 44.8 °F 17.4 °F 23.48 in West 2.2 mph -999.0 mph 33% 0.00 in
09:36 46.2 °F 17.9 °F 23.48 in NW 2.7 mph -999.0 mph 32% 0.00 in
09:51 46.8 °F 17.0 °F 23.49 in NW 1.7 mph -999.0 mph 30% 0.00 in
10:06 47.3 °F 17.4 °F 23.49 in NNE 4.2 mph -999.0 mph 30% 0.00 in
10:22 47.1 °F 17.2 °F 23.49 in NW 4.2 mph -999.0 mph 30% 0.00 in
10:37 46.8 °F 19.2 °F 23.49 in NW 5.8 mph -999.0 mph 33% 0.00 in
10:52 47.1 °F 19.4 °F 23.49 in NNE 4.7 mph -999.0 mph 33% 0.00 in
11:08 47.3 °F 18.9 °F 23.49 in WNW 2.7 mph -999.0 mph 32% 0.00 in
11:23 47.3 °F 21.0 °F 23.49 in NNW 3.2 mph -999.0 mph 35% 0.00 in
11:38 47.5 °F 20.5 °F 23.49 in WSW 2.7 mph -999.0 mph 34% 0.00 in
11:53 48.7 °F 20.1 °F 23.50 in NNW 3.7 mph -999.0 mph 32% 0.00 in
12:08 49.3 °F 22.8 °F 23.49 in WNW 4.2 mph -999.0 mph 35% 0.00 in
12:24 50.5 °F 23.2 °F 23.49 in NNW 2.7 mph -999.0 mph 34% 0.00 in
12:39 51.8 °F 23.6 °F 23.49 in West 5.8 mph -999.0 mph 33% 0.00 in
12:55 52.7 °F 25.1 °F 23.49 in NNW 2.7 mph -999.0 mph 34% 0.00 in
13:10 54.0 °F 26.2 °F 23.49 in NW 2.7 mph -999.0 mph 34% 0.00 in
13:25 53.4 °F 21.9 °F 23.49 in NE 4.7 mph -999.0 mph 29% 0.00 in
13:41 54.3 °F 21.0 °F 23.49 in South 2.7 mph -999.0 mph 27% 0.00 in
13:56 54.3 °F 21.9 °F 23.49 in WNW 3.2 mph -999.0 mph 28% 0.00 in
14:11 52.9 °F 23.8 °F 23.49 in SSW 5.3 mph -999.0 mph 32% 0.00 in
14:26 52.9 °F 21.5 °F 23.49 in NNW 4.2 mph -999.0 mph 29% 0.00 in
14:41 52.2 °F 20.0 °F 23.48 in NNW 6.3 mph -999.0 mph 28% 0.00 in
14:57 51.3 °F 20.9 °F 23.49 in NNW 5.8 mph -999.0 mph 30% 0.00 in
15:12 50.9 °F 22.1 °F 23.49 in NW 6.3 mph -999.0 mph 32% 0.00 in
15:27 51.6 °F 24.1 °F 23.49 in NW 4.7 mph -999.0 mph 34% 0.00 in
15:43 50.4 °F 25.1 °F 23.49 in NW 4.2 mph -999.0 mph 37% 0.00 in
15:58 50.9 °F 22.8 °F 23.48 in NNW 6.3 mph -999.0 mph 33% 0.00 in
16:13 50.5 °F 23.2 °F 23.48 in NNW 3.7 mph -999.0 mph 34% 0.00 in
16:29 50.0 °F 23.4 °F 23.48 in NNW 2.7 mph -999.0 mph 35% 0.00 in
16:44 50.0 °F 24.1 °F 23.48 in SSW 2.7 mph -999.0 mph 36% 0.00 in
16:59 49.8 °F 25.8 °F 23.48 in NW 2.2 mph -999.0 mph 39% 0.00 in
17:14 53.6 °F 26.6 °F 23.48 in South 3.7 mph -999.0 mph 35% 0.00 in
17:29 51.1 °F 23.0 °F 23.48 in NNE 1.1 mph -999.0 mph 33% 0.00 in
17:45 50.4 °F 22.4 °F 23.48 in Calm   -999.0 mph 33% 0.00 in
18:00 49.1 °F 20.5 °F 23.48 in Calm   -999.0 mph 32% 0.00 in
18:15 46.8 °F 27.1 °F 23.48 in SSW 2.7 mph -999.0 mph 46% 0.00 in
18:31 44.2 °F 35.0 °F 23.48 in NNW 4.7 mph -999.0 mph 70% 0.00 in
18:46 42.6 °F 36.5 °F 23.48 in Calm   -999.0 mph 79% 0.00 in
19:01 41.0 °F 36.5 °F 23.48 in Calm   -999.0 mph 84% 0.00 in
19:16 39.4 °F 36.1 °F 23.49 in ESE 1.1 mph -999.0 mph 88% 0.00 in
19:31 38.5 °F 36.1 °F 23.48 in Calm   -999.0 mph 91% 0.00 in
19:47 37.9 °F 35.8 °F 23.48 in NW 4.7 mph -999.0 mph 92% 0.00 in
20:02 37.6 °F 35.5 °F 23.49 in West 1.7 mph -999.0 mph 92% 0.00 in
20:17 37.2 °F 35.1 °F 23.49 in Calm   -999.0 mph 92% 0.00 in
20:32 37.2 °F 35.1 °F 23.50 in Calm   -999.0 mph 92% 0.00 in
20:47 37.2 °F 35.1 °F 23.50 in NW 3.2 mph -999.0 mph 92% 0.00 in
21:03 37.0 °F 35.2 °F 23.51 in NNW 5.3 mph -999.0 mph 93% 0.00 in
21:18 36.9 °F 34.8 °F 23.51 in NW 3.7 mph -999.0 mph 92% 0.00 in
21:33 36.7 °F 34.6 °F 23.52 in SSW 6.3 mph -999.0 mph 92% 0.00 in
21:48 36.5 °F 34.4 °F 23.52 in Calm   -999.0 mph 92% 0.00 in
22:03 36.7 °F 34.0 °F 23.52 in SW 1.7 mph -999.0 mph 90% 0.00 in
22:19 36.7 °F 33.8 °F 23.52 in South 2.2 mph -999.0 mph 89% 0.00 in
22:34 36.5 °F 33.6 °F 23.52 in NW 2.2 mph -999.0 mph 89% 0.00 in
22:49 36.7 °F 33.2 °F 23.52 in NNW 1.7 mph -999.0 mph 87% 0.00 in
23:05 36.3 °F 32.5 °F 23.52 in WNW 2.7 mph -999.0 mph 86% 0.00 in
23:20 36.3 °F 29.5 °F 23.52 in West 3.2 mph -999.0 mph 76% 0.00 in
23:35 36.3 °F 29.1 °F 23.52 in WNW 3.7 mph -999.0 mph 75% 0.00 in
23:50 36.3 °F 29.8 °F 23.52 in Calm   -999.0 mph 77% 0.00 in
Big Bear CA Weather